Newtownards, United Kingdom
Current Conditions -  °F | °C
As of 10:20 AM on Wednesday 22 Oct 2014 (Local Time) from EGAC Reporting Station
Light Rain Light Rain  
Wind Chill: 42°   Ceiling: 4500
Heat Index: 48°   Visibility: 6mi
Dew Point: 46°   Wind: 17mph
Humidity: 93%   Direction: 230°SW
Pressure: 30.12"   Gusts: NA
Location:  54.6°N, 5.7°W
Report Text: EGAC 220920Z 23015KT 9999 -RA FEW013 SCT028 BKN045 09/08 Q1020
Loading
Personal Weather Stations






























Interactive Weather Map
Tropical Storm Tracking
New forecast layout! Learn more

10-Day Weather Forecast

Advertisements
Track Severe Weather on mobile